createdAt,value
2023-04-25T00:00:26.533Z,99.90
2023-04-25T00:02:57.030Z,99.90
2023-04-25T00:05:25.444Z,99.90
2023-04-25T00:07:53.751Z,99.90
2023-04-25T00:10:22.217Z,99.90
2023-04-25T00:12:50.372Z,99.90
2023-04-25T00:15:18.812Z,99.90
2023-04-25T00:17:47.665Z,99.90
2023-04-25T00:20:17.318Z,99.90
2023-04-25T00:22:45.434Z,99.90
2023-04-25T00:25:13.400Z,99.90
2023-04-25T00:27:42.745Z,99.90
2023-04-25T00:30:11.720Z,99.90
2023-04-25T00:32:39.765Z,99.90
2023-04-25T00:35:08.074Z,99.90
2023-04-25T00:37:37.446Z,99.90
2023-04-25T00:40:08.836Z,99.90
2023-04-25T00:42:38.253Z,99.90
2023-04-25T00:45:09.175Z,99.90
2023-04-25T00:47:38.532Z,99.90
2023-04-25T00:50:07.705Z,99.90
2023-04-25T00:52:37.045Z,99.90
2023-04-25T00:55:05.929Z,99.90
2023-04-25T00:57:33.996Z,99.90
2023-04-25T01:00:02.060Z,99.90
2023-04-25T01:02:31.875Z,99.90
2023-04-25T01:05:00.066Z,99.90
2023-04-25T01:07:28.257Z,99.90
2023-04-25T01:09:58.065Z,99.90
2023-04-25T01:12:26.185Z,99.90
2023-04-25T01:14:54.297Z,99.90
2023-04-25T01:17:22.392Z,99.90
2023-04-25T01:19:51.673Z,99.90
2023-04-25T01:22:21.822Z,99.90
2023-04-25T01:24:50.392Z,99.90
2023-04-25T01:27:19.034Z,99.90
2023-04-25T01:29:47.242Z,99.90
2023-04-25T01:32:16.125Z,99.90
2023-04-25T01:34:44.147Z,99.90
2023-04-25T01:37:12.077Z,99.90
2023-04-25T01:39:41.427Z,99.90
2023-04-25T01:42:09.709Z,99.90
2023-04-25T01:44:37.686Z,99.90
2023-04-25T01:47:05.841Z,99.90
2023-04-25T01:49:33.759Z,99.90
2023-04-25T01:52:01.839Z,99.90
2023-04-25T01:54:29.810Z,99.90
2023-04-25T01:56:59.566Z,99.90
2023-04-25T01:59:27.489Z,99.90
2023-04-25T02:01:55.468Z,99.90
2023-04-25T02:04:23.503Z,99.90
2023-04-25T02:06:51.470Z,99.90
2023-04-25T02:09:19.394Z,99.90
2023-04-25T02:11:47.360Z,99.90
2023-04-25T02:14:16.602Z,99.90
2023-04-25T02:16:45.011Z,99.90
2023-04-25T02:19:13.125Z,99.90
2023-04-25T02:21:41.077Z,99.90
2023-04-25T02:24:10.023Z,99.90
2023-04-25T02:26:37.964Z,99.90
2023-04-25T02:29:05.887Z,99.90
2023-04-25T02:31:35.224Z,99.90
2023-04-25T02:34:03.197Z,99.90
2023-04-25T02:36:35.192Z,99.90
2023-04-25T02:39:04.025Z,99.90
2023-04-25T02:41:31.989Z,99.90
2023-04-25T02:43:59.969Z,99.90
2023-04-25T02:46:38.237Z,99.90
2023-04-25T02:49:08.371Z,99.90
2023-04-25T02:51:36.383Z,99.90
2023-04-25T02:54:04.515Z,99.90
2023-04-25T02:56:32.410Z,99.90
2023-04-25T02:59:00.415Z,99.90
2023-04-25T03:01:28.360Z,99.90
2023-04-25T03:03:56.359Z,99.90
2023-04-25T03:06:25.703Z,99.90
2023-04-25T03:08:53.585Z,99.90
2023-04-25T03:11:22.197Z,99.90
2023-04-25T03:13:50.386Z,99.90
2023-04-25T03:16:18.541Z,99.90
2023-04-25T03:18:46.494Z,99.90
2023-04-25T03:21:17.801Z,99.90
2023-04-25T03:23:47.068Z,99.90
2023-04-25T03:26:15.021Z,99.90
2023-04-25T03:28:43.099Z,99.90
2023-04-25T03:31:11.133Z,99.90
2023-04-25T03:33:39.065Z,99.90
2023-04-25T03:36:07.894Z,99.90
2023-04-25T03:38:35.933Z,99.90
2023-04-25T03:41:05.638Z,99.90
2023-04-25T03:43:33.603Z,99.90
2023-04-25T03:46:02.175Z,99.90
2023-04-25T03:48:30.152Z,99.90
2023-04-25T03:50:58.072Z,99.90
2023-04-25T03:53:25.998Z,99.90
2023-04-25T03:55:54.118Z,99.90
2023-04-25T03:58:24.094Z,99.90
2023-04-25T04:00:53.431Z,99.90
2023-04-25T04:03:21.795Z,99.90
2023-04-25T04:05:50.029Z,99.90
2023-04-25T04:08:18.028Z,99.90
2023-04-25T04:10:45.954Z,99.90
2023-04-25T04:13:13.877Z,99.90
2023-04-25T04:15:43.361Z,99.90
2023-04-25T04:18:11.802Z,99.90
2023-04-25T04:20:39.783Z,99.90
2023-04-25T04:23:07.746Z,99.90
2023-04-25T04:25:36.499Z,99.90
2023-04-25T04:28:04.940Z,99.90
2023-04-25T04:30:34.195Z,99.90
2023-04-25T04:33:04.534Z,99.90
2023-04-25T04:35:32.726Z,99.90
2023-04-25T04:38:03.014Z,99.90
2023-04-25T04:40:32.187Z,99.90
2023-04-25T04:43:00.132Z,99.90
2023-04-25T04:45:28.724Z,99.90
2023-04-25T04:47:57.284Z,99.90
2023-04-25T04:50:27.574Z,99.90
2023-04-25T04:52:56.459Z,99.90
2023-04-25T04:55:24.434Z,99.90
2023-04-25T04:57:52.382Z,99.90
2023-04-25T05:00:21.890Z,99.90
2023-04-25T05:02:50.120Z,99.90
2023-04-25T05:05:18.255Z,99.90
2023-04-25T05:07:47.560Z,99.90
2023-04-25T05:10:15.569Z,99.90
2023-04-25T05:12:43.682Z,99.90
2023-04-25T05:15:12.118Z,99.90
2023-04-25T05:17:40.904Z,99.90
2023-04-25T05:20:10.369Z,99.90
2023-04-25T05:22:38.422Z,99.90
2023-04-25T05:25:08.310Z,99.90
2023-04-25T05:27:36.307Z,99.90
2023-04-25T05:30:04.544Z,99.90
2023-04-25T05:32:32.534Z,99.90
2023-04-25T05:35:00.506Z,99.90
2023-04-25T05:37:28.555Z,99.90
2023-04-25T05:39:56.512Z,99.90
2023-04-25T05:42:25.978Z,99.90
2023-04-25T05:44:53.901Z,99.90
2023-04-25T05:47:21.886Z,99.90
2023-04-25T05:49:50.364Z,99.90
2023-04-25T05:52:18.288Z,99.90
2023-04-25T05:54:46.565Z,99.90
2023-04-25T05:57:21.915Z,99.90
2023-04-25T05:59:51.392Z,99.90
2023-04-25T06:02:19.782Z,99.90
2023-04-25T06:04:48.016Z,99.90
2023-04-25T06:07:16.159Z,99.90
2023-04-25T06:09:45.295Z,99.90
2023-04-25T06:12:13.240Z,99.90
2023-04-25T06:14:41.717Z,99.90
2023-04-25T06:17:11.103Z,99.90
2023-04-25T06:19:39.473Z,99.90
2023-04-25T06:22:08.272Z,99.90
2023-04-25T06:24:36.534Z,99.90
2023-04-25T06:27:04.596Z,99.90
2023-04-25T06:29:32.561Z,99.90
2023-04-25T06:32:00.511Z,99.90
2023-04-25T06:34:29.870Z,99.90
2023-04-25T06:36:58.200Z,99.90
2023-04-25T06:39:26.485Z,99.90
2023-04-25T06:41:54.458Z,99.90
2023-04-25T06:44:24.123Z,99.90
2023-04-25T06:46:52.160Z,99.90
2023-04-25T06:49:20.090Z,99.90
2023-04-25T06:51:49.396Z,99.90
2023-04-25T06:54:18.522Z,99.90
2023-04-25T06:56:46.502Z,99.90
2023-04-25T06:59:14.446Z,99.90
2023-04-25T07:01:42.395Z,99.90
2023-04-25T07:04:10.673Z,99.90
2023-04-25T07:06:43.304Z,99.90
2023-04-25T07:09:13.065Z,99.90
2023-04-25T07:11:41.084Z,99.90
2023-04-25T07:14:09.106Z,99.90
2023-04-25T07:16:37.141Z,99.90
2023-04-25T07:19:05.175Z,99.90
2023-04-25T07:21:33.800Z,99.90
2023-04-25T07:24:01.734Z,99.90
2023-04-25T07:26:31.044Z,99.90
2023-04-25T07:28:58.942Z,99.90
2023-04-25T07:31:27.241Z,99.90
2023-04-25T07:33:55.180Z,99.90
2023-04-25T07:36:23.099Z,99.90
2023-04-25T07:38:51.275Z,99.90
2023-04-25T07:41:19.405Z,99.90
2023-04-25T07:43:48.765Z,99.90
2023-04-25T07:46:16.774Z,99.90
2023-04-25T07:48:44.951Z,99.90
2023-04-25T07:51:13.308Z,99.90
2023-04-25T07:53:41.460Z,99.90
2023-04-25T07:56:10.233Z,99.90
2023-04-25T07:58:38.391Z,99.90
2023-04-25T08:01:07.936Z,99.90
2023-04-25T08:03:36.385Z,99.90
2023-04-25T08:06:07.954Z,99.90
2023-04-25T08:08:36.639Z,99.90
2023-04-25T08:11:04.882Z,99.90
2023-04-25T08:13:32.939Z,99.90
2023-04-25T08:16:01.104Z,99.90
2023-04-25T08:18:30.721Z,99.90
2023-04-25T08:20:58.815Z,99.90
2023-04-25T08:23:26.855Z,99.90
2023-04-25T08:25:54.964Z,99.90
2023-04-25T08:28:23.005Z,99.90
2023-04-25T08:30:51.117Z,99.90
2023-04-25T08:33:19.408Z,99.90
2023-04-25T08:35:49.066Z,99.90
2023-04-25T08:38:18.795Z,99.90
2023-04-25T08:40:47.304Z,99.90
2023-04-25T08:43:16.225Z,99.90
2023-04-25T08:45:44.910Z,99.90
2023-04-25T08:48:15.024Z,99.90
2023-04-25T08:50:52.505Z,99.90
2023-04-25T08:53:26.277Z,99.90
2023-04-25T08:55:57.259Z,99.90
2023-04-25T08:58:25.978Z,99.90
2023-04-25T09:00:54.793Z,99.90
2023-04-25T09:03:23.296Z,99.90
2023-04-25T09:05:53.770Z,99.90
2023-04-25T09:08:22.150Z,99.90
2023-04-25T09:10:50.285Z,99.90
2023-04-25T09:13:27.108Z,99.90
2023-04-25T09:15:56.481Z,99.90
2023-04-25T09:18:29.932Z,99.90
2023-04-25T09:21:13.770Z,99.90
2023-04-25T09:23:44.316Z,99.90
2023-04-25T09:26:15.766Z,99.90
2023-04-25T09:28:44.079Z,99.90
2023-04-25T09:31:12.932Z,99.90
2023-04-25T09:33:42.583Z,99.90
2023-04-25T09:36:13.077Z,99.90
2023-04-25T09:38:43.790Z,99.90
2023-04-25T09:41:13.659Z,99.90
2023-04-25T09:43:42.274Z,99.90
2023-04-25T09:46:12.238Z,99.90
2023-04-25T09:48:40.673Z,99.90
2023-04-25T09:51:10.149Z,99.90
2023-04-25T09:53:41.426Z,99.90
2023-04-25T09:56:11.237Z,99.90
2023-04-25T09:58:40.731Z,99.90
2023-04-25T10:01:10.136Z,99.90
2023-04-25T10:03:40.863Z,99.90
2023-04-25T10:06:11.387Z,99.90
2023-04-25T10:08:41.204Z,99.90
2023-04-25T10:11:10.656Z,99.90
2023-04-25T10:13:38.788Z,99.90
2023-04-25T10:16:07.522Z,99.90
2023-04-25T10:18:35.628Z,99.90
2023-04-25T10:21:06.258Z,99.90
2023-04-25T10:23:35.441Z,99.90
2023-04-25T10:26:05.206Z,99.90
2023-04-25T10:28:59.768Z,99.90
2023-04-25T10:31:27.996Z,99.90
2023-04-25T10:33:56.382Z,99.90
2023-04-25T10:36:25.636Z,99.90
2023-04-25T10:38:55.375Z,99.90
2023-04-25T10:41:25.009Z,99.90
2023-04-25T10:44:03.159Z,99.90
2023-04-25T10:46:32.292Z,99.90
2023-04-25T10:49:05.686Z,99.90
2023-04-25T10:51:51.553Z,99.90
2023-04-25T10:54:27.058Z,99.90
2023-04-25T10:56:56.500Z,99.90
2023-04-25T10:59:27.454Z,99.90
2023-04-25T11:01:56.169Z,99.90
2023-04-25T11:04:26.575Z,99.90
2023-04-25T11:07:07.009Z,99.90
2023-04-25T11:09:36.433Z,99.90
2023-04-25T11:12:06.983Z,99.90
2023-04-25T11:14:34.883Z,99.90
2023-04-25T11:17:03.623Z,99.90
2023-04-25T11:19:32.201Z,99.90
2023-04-25T11:22:01.699Z,99.90
2023-04-25T11:24:30.049Z,99.90
2023-04-25T11:26:59.824Z,99.90
2023-04-25T11:29:31.046Z,99.90
2023-04-25T11:31:59.903Z,99.90
2023-04-25T11:34:28.288Z,99.90
2023-04-25T11:36:56.378Z,99.90
2023-04-25T11:39:26.790Z,99.90
2023-04-25T11:41:55.728Z,99.90
2023-04-25T11:44:24.549Z,99.90
2023-04-25T11:46:54.016Z,99.90
2023-04-25T11:49:23.109Z,99.90
2023-04-25T11:51:51.279Z,99.90
2023-04-25T11:54:19.506Z,99.90
2023-04-25T11:56:48.276Z,99.90
2023-04-25T11:59:17.741Z,99.90
2023-04-25T12:01:51.272Z,99.90
2023-04-25T12:04:22.193Z,99.90
2023-04-25T12:06:52.943Z,99.90
2023-04-25T12:09:23.577Z,99.90
2023-04-25T12:11:56.010Z,99.90
2023-04-25T12:14:25.948Z,99.90
2023-04-25T12:16:54.003Z,99.90
2023-04-25T12:19:23.723Z,99.90
2023-04-25T12:24:26.569Z,99.30
2023-04-25T12:26:55.772Z,99.90
2023-04-25T12:29:29.477Z,99.90
2023-04-25T12:32:00.840Z,99.90
2023-04-25T12:34:32.592Z,99.90
2023-04-25T12:37:00.863Z,99.90
2023-04-25T12:39:28.976Z,99.90
2023-04-25T12:41:57.110Z,99.90
2023-04-25T12:44:25.312Z,99.90
2023-04-25T12:46:54.004Z,99.90
2023-04-25T12:49:22.404Z,99.90
2023-04-25T12:51:52.564Z,99.90
2023-04-25T12:54:20.729Z,99.90
2023-04-25T12:56:49.336Z,99.90
2023-04-25T12:59:17.607Z,99.60
2023-04-25T13:01:46.553Z,99.90
2023-04-25T13:04:14.878Z,99.60
2023-04-25T13:06:42.979Z,99.20
2023-04-25T13:09:13.496Z,98.80
2023-04-25T13:11:42.590Z,98.40
2023-04-25T13:14:10.801Z,97.80
2023-04-25T13:16:38.984Z,97.90
2023-04-25T13:19:08.795Z,97.90
2023-04-25T13:21:36.934Z,97.40
2023-04-25T13:24:05.985Z,96.90
2023-04-25T13:26:35.480Z,97.30
2023-04-25T13:29:04.632Z,97.70
2023-04-25T13:31:33.696Z,97.30
2023-04-25T13:34:01.806Z,98.10
2023-04-25T13:36:30.000Z,99.10
2023-04-25T13:38:58.026Z,99.10
2023-04-25T13:41:26.167Z,99.20
2023-04-25T13:43:55.934Z,99.30
2023-04-25T13:46:44.901Z,98.70
2023-04-25T13:49:13.474Z,98.10
2023-04-25T13:51:41.855Z,97.30
2023-04-25T13:54:09.983Z,96.10
2023-04-25T13:56:38.184Z,95.70
2023-04-25T13:59:07.991Z,95.10
2023-04-25T14:01:36.687Z,92.30
2023-04-25T14:04:06.685Z,92.30
2023-04-25T14:06:35.287Z,92.00
2023-04-25T14:09:05.426Z,91.10
2023-04-25T14:11:33.738Z,92.30
2023-04-25T14:14:01.820Z,92.30
2023-04-25T14:16:32.809Z,91.70
2023-04-25T14:19:01.306Z,92.10
2023-04-25T14:21:30.108Z,92.20
2023-04-25T14:23:58.178Z,92.80
2023-04-25T14:26:26.807Z,92.80
2023-04-25T14:28:54.998Z,91.60
2023-04-25T14:31:23.255Z,91.50
2023-04-25T14:33:53.639Z,91.90
2023-04-25T14:36:22.461Z,92.00
2023-04-25T14:38:51.132Z,92.80
2023-04-25T14:41:19.318Z,94.90
2023-04-25T14:43:47.386Z,96.20
2023-04-25T14:46:15.601Z,95.50
2023-04-25T14:48:44.156Z,96.40
2023-04-25T14:51:13.648Z,97.80
2023-04-25T14:53:42.197Z,98.30
2023-04-25T14:56:10.765Z,99.00
2023-04-25T14:58:39.880Z,99.90
2023-04-25T15:01:09.244Z,99.90
2023-04-25T15:03:37.755Z,99.90
2023-04-25T15:06:07.219Z,99.90
2023-04-25T15:08:36.980Z,99.90
2023-04-25T15:11:05.747Z,99.90
2023-04-25T15:13:35.922Z,99.80
2023-04-25T15:16:04.199Z,99.90
2023-04-25T15:18:32.336Z,99.90
2023-04-25T15:21:00.498Z,99.90
2023-04-25T15:23:29.842Z,99.40
2023-04-25T15:25:59.478Z,99.00
2023-04-25T15:28:27.651Z,99.40
2023-04-25T15:30:56.172Z,98.30
2023-04-25T15:33:24.285Z,98.50
2023-04-25T15:35:52.311Z,97.60
2023-04-25T15:38:20.425Z,97.50
2023-04-25T15:40:48.676Z,98.60
2023-04-25T15:43:18.278Z,98.60
2023-04-25T15:45:46.632Z,98.70
2023-04-25T15:48:14.801Z,99.10
2023-04-25T15:50:43.382Z,99.00
2023-04-25T15:53:11.782Z,99.60
2023-04-25T15:55:42.823Z,99.90
2023-04-25T15:58:12.809Z,99.90
2023-04-25T16:00:43.376Z,99.90
2023-04-25T16:03:11.747Z,99.50
2023-04-25T16:05:40.932Z,99.60
2023-04-25T16:08:09.166Z,99.70
2023-04-25T16:10:38.205Z,99.90
2023-04-25T16:13:06.370Z,99.90
2023-04-25T16:15:35.524Z,99.90
2023-04-25T16:18:05.676Z,99.90
2023-04-25T16:20:34.061Z,99.90
2023-04-25T16:23:02.289Z,99.90
2023-04-25T16:25:30.449Z,99.90
2023-04-25T16:27:58.621Z,99.90
2023-04-25T16:30:27.230Z,99.90
2023-04-25T16:32:57.092Z,99.90
2023-04-25T16:35:30.441Z,99.90
2023-04-25T16:37:58.693Z,99.90
2023-04-25T16:40:27.096Z,99.90
2023-04-25T16:42:55.281Z,99.90
2023-04-25T16:45:24.350Z,99.90
2023-04-25T16:47:52.521Z,99.90
2023-04-25T16:50:21.141Z,99.90
2023-04-25T16:52:51.167Z,99.90
2023-04-25T16:55:20.453Z,99.90
2023-04-25T16:57:48.508Z,99.90
2023-04-25T17:00:18.246Z,99.90
2023-04-25T17:02:47.226Z,99.90
2023-04-25T17:05:15.557Z,99.90
2023-04-25T17:07:43.709Z,99.90
2023-04-25T17:10:13.448Z,99.90
2023-04-25T17:12:41.583Z,99.90
2023-04-25T17:15:10.648Z,99.90
2023-04-25T17:17:38.781Z,99.90
2023-04-25T17:20:08.398Z,99.90
2023-04-25T17:22:37.093Z,99.90
2023-04-25T17:25:05.599Z,99.90
2023-04-25T17:27:35.303Z,99.90
2023-04-25T17:30:04.067Z,99.90
2023-04-25T17:32:32.384Z,99.90
2023-04-25T17:35:00.890Z,99.90
2023-04-25T17:37:29.135Z,99.90
2023-04-25T17:39:57.419Z,99.90
2023-04-25T17:42:25.608Z,99.90
2023-04-25T17:44:55.620Z,99.90
2023-04-25T17:47:24.238Z,99.90
2023-04-25T17:49:52.599Z,99.90
2023-04-25T17:52:20.933Z,99.90
2023-04-25T17:54:49.786Z,99.90
2023-04-25T17:57:18.028Z,99.90
2023-04-25T17:59:46.346Z,99.90
2023-04-25T18:02:17.054Z,99.90
2023-04-25T18:04:45.621Z,99.90
2023-04-25T18:07:13.788Z,99.90
2023-04-25T18:09:42.009Z,99.90
2023-04-25T18:12:10.426Z,99.90
2023-04-25T18:14:38.440Z,99.90
2023-04-25T18:17:07.214Z,99.90
2023-04-25T18:19:36.667Z,99.90
2023-04-25T18:22:04.911Z,99.90
2023-04-25T18:24:33.477Z,99.90
2023-04-25T18:27:02.710Z,99.90
2023-04-25T18:29:33.763Z,99.90
2023-04-25T18:32:04.496Z,99.90
2023-04-25T18:34:33.707Z,99.90
2023-04-25T18:37:03.283Z,99.90
2023-04-25T18:39:31.489Z,99.90
2023-04-25T18:42:05.461Z,99.90
2023-04-25T18:44:39.468Z,99.90
2023-04-25T18:47:08.868Z,99.90
2023-04-25T18:49:37.496Z,99.90
2023-04-25T18:52:08.633Z,99.90
2023-04-25T18:54:37.034Z,99.90
2023-04-25T18:57:06.239Z,99.90
2023-04-25T18:59:34.573Z,99.90
2023-04-25T19:02:03.371Z,99.90
2023-04-25T19:04:32.298Z,99.90
2023-04-25T19:07:00.550Z,99.90
2023-04-25T19:09:30.225Z,99.90
2023-04-25T19:11:58.648Z,99.90
2023-04-25T19:14:28.396Z,99.90
2023-04-25T19:16:59.141Z,99.90
2023-04-25T19:19:27.504Z,99.90
2023-04-25T19:21:55.857Z,99.90
2023-04-25T19:24:24.073Z,99.90
2023-04-25T19:26:53.518Z,99.90
2023-04-25T19:29:21.778Z,99.90
2023-04-25T19:31:50.047Z,99.90
2023-04-25T19:34:18.263Z,99.90
2023-04-25T19:36:46.491Z,99.90
2023-04-25T19:39:14.598Z,99.90
2023-04-25T19:41:42.884Z,99.90
2023-04-25T19:44:12.460Z,99.90
2023-04-25T19:46:42.109Z,99.90
2023-04-25T19:49:10.415Z,99.90
2023-04-25T19:51:38.704Z,99.90
2023-04-25T19:54:06.926Z,99.90
2023-04-25T19:56:35.282Z,99.90
2023-04-25T19:59:03.707Z,99.90
2023-04-25T20:01:33.486Z,99.90
2023-04-25T20:04:01.668Z,99.90
2023-04-25T20:06:29.905Z,99.90
2023-04-25T20:08:58.005Z,99.90
2023-04-25T20:11:28.624Z,99.90
2023-04-25T20:13:57.415Z,99.90
2023-04-25T20:16:25.681Z,99.90
2023-04-25T20:18:55.495Z,99.90
2023-04-25T20:21:24.252Z,99.90
2023-04-25T20:23:52.389Z,99.90
2023-04-25T20:26:22.639Z,99.90
2023-04-25T20:28:58.669Z,99.90
2023-04-25T20:31:27.025Z,99.90
2023-04-25T20:33:56.796Z,99.90
2023-04-25T20:36:24.883Z,99.90
2023-04-25T20:38:53.957Z,99.90
2023-04-25T20:41:22.633Z,99.90
2023-04-25T20:43:53.176Z,99.90
2023-04-25T20:46:23.516Z,99.90
2023-04-25T20:48:52.798Z,99.90
2023-04-25T20:51:24.084Z,99.90
2023-04-25T20:53:53.221Z,99.90
2023-04-25T20:56:21.412Z,99.90
2023-04-25T20:58:50.066Z,99.90
2023-04-25T21:01:18.568Z,99.90
2023-04-25T21:03:48.433Z,99.90
2023-04-25T21:06:16.841Z,99.90
2023-04-25T21:08:46.695Z,99.90
2023-04-25T21:11:15.411Z,99.90
2023-04-25T21:13:43.624Z,99.90
2023-04-25T21:16:12.224Z,99.90
2023-04-25T21:18:40.671Z,99.90
2023-04-25T21:21:08.883Z,99.90
2023-04-25T21:23:37.061Z,99.90
2023-04-25T21:26:06.758Z,99.90
2023-04-25T21:28:34.944Z,99.90
2023-04-25T21:31:03.223Z,99.90
2023-04-25T21:33:31.707Z,99.90
2023-04-25T21:35:59.810Z,99.90
2023-04-25T21:38:27.920Z,99.90
2023-04-25T21:40:56.493Z,99.90
2023-04-25T21:43:26.140Z,99.90
2023-04-25T21:46:21.530Z,99.90
2023-04-25T21:48:42.452Z,99.90
2023-04-25T21:51:10.673Z,99.90
2023-04-25T21:53:38.848Z,99.90
2023-04-25T21:56:07.590Z,99.90
2023-04-25T21:58:37.129Z,99.90
2023-04-25T22:01:05.822Z,99.90
2023-04-25T22:03:34.319Z,99.90
2023-04-25T22:06:03.918Z,99.90
2023-04-25T22:08:32.181Z,99.90
2023-04-25T22:11:02.760Z,99.90
2023-04-25T22:13:31.334Z,99.90
2023-04-25T22:16:01.028Z,99.90
2023-04-25T22:18:29.185Z,99.90
2023-04-25T22:20:57.799Z,99.90
2023-04-25T22:23:26.291Z,99.90
2023-04-25T22:25:54.457Z,99.90
2023-04-25T22:28:22.760Z,99.90
2023-04-25T22:30:51.110Z,99.90
2023-04-25T22:33:20.854Z,99.90
2023-04-25T22:35:49.096Z,99.90
2023-04-25T22:38:17.318Z,99.90
2023-04-25T22:40:47.963Z,99.90
2023-04-25T22:43:16.298Z,99.90
2023-04-25T22:45:44.475Z,99.90
2023-04-25T22:48:12.972Z,99.90
2023-04-25T22:50:42.565Z,99.90
2023-04-25T22:53:11.629Z,99.90
2023-04-25T22:55:39.957Z,99.90
2023-04-25T22:58:09.375Z,99.90
2023-04-25T23:00:37.884Z,99.90
2023-04-25T23:03:06.816Z,99.90
2023-04-25T23:05:35.034Z,99.90
2023-04-25T23:08:05.473Z,99.90
2023-04-25T23:10:33.472Z,99.90
2023-04-25T23:13:01.620Z,99.90
2023-04-25T23:15:31.311Z,99.90
2023-04-25T23:17:59.457Z,99.90
2023-04-25T23:20:27.843Z,99.90
2023-04-25T23:22:56.018Z,99.90
2023-04-25T23:25:26.631Z,99.90
2023-04-25T23:27:54.744Z,99.90
2023-04-25T23:30:23.122Z,99.90
2023-04-25T23:32:51.395Z,99.90
2023-04-25T23:35:19.563Z,99.90
2023-04-25T23:37:49.051Z,99.90
2023-04-25T23:40:17.137Z,99.90
2023-04-25T23:42:46.585Z,99.90
2023-04-25T23:45:16.518Z,99.90
2023-04-25T23:47:44.944Z,99.90
2023-04-25T23:50:13.394Z,99.90
2023-04-25T23:52:41.724Z,99.90
2023-04-25T23:55:10.730Z,99.90
2023-04-25T23:57:38.860Z,99.90
